Time;durP1;ratioP1;P1;durP2;ratioP2;P2;SDS_P1;SDS_P2;PMS_P1;PMS_P2;Temp;Humidity;BMP_temperature;BMP_pressure;BME280_temperature;BME280_humidity;BME280_pressure;Samples;Min_cycle;Max_cycle;Signal;HPM_P1;HPM_P2
2022/09/28 00:01:26;;;;;;;24.00;6.80;;;;;;;;;;5091460;28;20054;-73
2022/09/28 00:04:32;;;;;;;18.17;5.63;;;;;;;;;;5091427;28;20055;-74
2022/09/28 00:07:36;;;;;;;20.10;4.68;;;;;;;;;;5090920;28;20043;-74
2022/09/28 00:10:42;;;;;;;16.95;4.22;;;;;;;;;;5091209;28;20400;-73
2022/09/28 00:13:51;;;;;;;22.15;3.85;;;;;;;;;;5091690;28;20051;-73
2022/09/28 00:16:55;;;;;;;19.77;4.05;;;;;;;;;;5091211;28;20055;-73
2022/09/28 00:19:59;;;;;;;24.13;3.58;;;;;;;;;;5091477;28;20404;-73
2022/09/28 00:23:04;;;;;;;21.40;3.38;;;;;;;;;;5091299;28;20047;-74
2022/09/28 00:26:08;;;;;;;17.23;3.10;;;;;;;;;;5091340;28;20043;-72
2022/09/28 00:29:17;;;;;;;24.92;4.45;;;;;;;;;;5090974;28;20043;-73
2022/09/28 00:32:23;;;;;;;25.85;3.65;;;;;;;;;;5090414;28;20063;-73
2022/09/28 00:35:27;;;;;;;21.83;3.65;;;;;;;;;;5090587;28;20411;-74
2022/09/28 00:38:32;;;;;;;26.00;4.85;;;;;;;;;;5091037;28;20043;-73
2022/09/28 00:41:36;;;;;;;25.90;4.22;;;;;;;;;;5090257;28;20036;-73
2022/09/28 00:44:51;;;;;;;28.73;4.95;;;;;;;;;;5090961;28;20053;-73
2022/09/28 00:47:56;;;;;;;34.67;4.28;;;;;;;;;;5091173;28;20051;-74
2022/09/28 00:51:04;;;;;;;27.13;4.40;;;;;;;;;;5090195;28;20043;-74
2022/09/28 00:54:09;;;;;;;29.10;4.45;;;;;;;;;;5090705;28;20043;-72
2022/09/28 00:57:14;;;;;;;28.83;3.72;;;;;;;;;;5091128;28;20047;-73
2022/09/28 01:00:18;;;;;;;23.65;4.32;;;;;;;;;;5091089;28;20047;-74
2022/09/28 01:03:23;;;;;;;23.95;4.43;;;;;;;;;;5090714;28;20047;-73
2022/09/28 01:06:29;;;;;;;29.92;4.63;;;;;;;;;;5090000;28;20051;-72
2022/09/28 01:09:36;;;;;;;24.00;4.18;;;;;;;;;;5089788;28;20052;-74
2022/09/28 01:12:40;;;;;;;24.58;3.45;;;;;;;;;;5089866;28;20039;-74
2022/09/28 01:15:54;;;;;;;21.85;3.88;;;;;;;;;;5078515;28;20038;-74
2022/09/28 01:19:12;;;;;;;18.90;4.00;;;;;;;;;;5090021;28;20046;-73
2022/09/28 01:22:16;;;;;;;18.63;3.30;;;;;;;;;;5089644;28;20031;-73
2022/09/28 01:25:27;;;;;;;23.98;4.82;;;;;;;;;;5078167;28;20047;-73
2022/09/28 01:28:32;;;;;;;28.90;4.28;;;;;;;;;;5089762;28;20075;-74
2022/09/28 01:31:37;;;;;;;25.25;5.40;;;;;;;;;;5090092;28;20047;-74
2022/09/28 01:34:50;;;;;;;28.45;4.78;;;;;;;;;;5089639;28;20039;-73
2022/09/28 01:38:09;;;;;;;32.70;5.95;;;;;;;;;;5089930;28;20499;-73
2022/09/28 01:41:16;;;;;;;26.95;4.47;;;;;;;;;;5081904;28;20043;-74
2022/09/28 01:44:23;;;;;;;35.25;4.95;;;;;;;;;;5093454;28;20051;-73
2022/09/28 01:47:33;;;;;;;32.75;5.28;;;;;;;;;;5093358;28;20039;-72
2022/09/28 01:50:39;;;;;;;23.63;4.40;;;;;;;;;;5094476;28;20391;-72
2022/09/28 01:53:47;;;;;;;30.45;4.72;;;;;;;;;;5094420;28;20039;-74
2022/09/28 01:57:15;;;;;;;27.95;4.80;;;;;;;;;;5082419;28;20121;-74
2022/09/28 02:00:20;;;;;;;30.60;5.20;;;;;;;;;;5093204;28;20039;-74
2022/09/28 02:03:41;;;;;;;52.70;6.60;;;;;;;;;;5093062;28;20522;-72
2022/09/28 02:06:48;;;;;;;30.42;5.10;;;;;;;;;;5094054;28;20416;-73
2022/09/28 02:09:56;;;;;;;28.23;4.65;;;;;;;;;;5081423;28;20046;-73
2022/09/28 02:13:14;;;;;;;33.42;5.22;;;;;;;;;;5093349;28;20510;-74
2022/09/28 02:16:22;;;;;;;29.42;4.57;;;;;;;;;;5092889;28;20047;-73
2022/09/28 02:19:27;;;;;;;29.42;5.28;;;;;;;;;;5093574;28;20388;-73
2022/09/28 02:22:39;;;;;;;31.60;5.13;;;;;;;;;;5093560;28;20047;-73
2022/09/28 02:25:51;;;;;;;26.83;5.13;;;;;;;;;;5081149;28;20055;-74
2022/09/28 02:28:58;;;;;;;29.73;4.90;;;;;;;;;;5092560;28;20051;-73
2022/09/28 02:32:02;;;;;;;21.70;4.85;;;;;;;;;;5093358;28;20039;-73
2022/09/28 02:35:08;;;;;;;35.80;4.75;;;;;;;;;;5092770;28;20063;-73
2022/09/28 02:38:13;;;;;;;35.75;4.82;;;;;;;;;;5092639;28;20043;-75
2022/09/28 02:41:27;;;;;;;24.60;4.68;;;;;;;;;;5092681;28;20044;-74
2022/09/28 02:44:50;;;;;;;30.80;4.78;;;;;;;;;;5092507;28;20067;-74
2022/09/28 02:47:55;;;;;;;31.10;4.55;;;;;;;;;;5092325;28;20438;-74
2022/09/28 02:50:59;;;;;;;47.58;13.40;;;;;;;;;;5091522;28;20051;-74
2022/09/28 02:54:22;;;;;;;31.60;5.47;;;;;;;;;;5080308;28;20043;-73
2022/09/28 02:57:29;;;;;;;25.98;4.47;;;;;;;;;;5092204;28;20051;-73
2022/09/28 03:00:37;;;;;;;28.98;5.53;;;;;;;;;;5092185;28;20066;-73
2022/09/28 03:03:48;;;;;;;32.00;4.45;;;;;;;;;;5092684;28;20046;-74
2022/09/28 03:07:00;;;;;;;34.55;5.13;;;;;;;;;;5093094;28;20067;-73
2022/09/28 03:10:08;;;;;;;36.05;5.78;;;;;;;;;;5091963;28;20055;-74
2022/09/28 03:13:13;;;;;;;31.20;4.75;;;;;;;;;;5091715;28;20050;-74
2022/09/28 03:16:19;;;;;;;25.15;4.18;;;;;;;;;;5092526;28;20403;-73
2022/09/28 03:19:31;;;;;;;34.47;5.00;;;;;;;;;;5091724;28;20427;-73
2022/09/28 03:22:37;;;;;;;28.05;5.45;;;;;;;;;;5091726;28;20085;-72
2022/09/28 03:25:42;;;;;;;24.58;4.57;;;;;;;;;;5091901;28;20059;-73
2022/09/28 03:28:46;;;;;;;26.17;4.13;;;;;;;;;;5092340;28;20044;-73
2022/09/28 03:31:57;;;;;;;20.70;3.53;;;;;;;;;;5091830;28;20384;-74
2022/09/28 03:35:01;;;;;;;19.48;3.58;;;;;;;;;;5092012;28;20059;-73
2022/09/28 03:38:05;;;;;;;32.75;4.90;;;;;;;;;;5091370;28;20031;-74
2022/09/28 03:41:12;;;;;;;28.65;5.55;;;;;;;;;;5091066;28;20106;-74
2022/09/28 03:44:19;;;;;;;27.92;5.47;;;;;;;;;;5091152;28;20051;-73
2022/09/28 03:47:23;;;;;;;21.98;5.22;;;;;;;;;;5079713;28;20527;-74
2022/09/28 03:50:27;;;;;;;30.95;5.93;;;;;;;;;;5091162;28;20039;-73
2022/09/28 03:53:32;;;;;;;21.25;5.50;;;;;;;;;;5091913;28;20039;-73
2022/09/28 03:56:38;;;;;;;28.42;5.95;;;;;;;;;;5090828;28;20043;-72
2022/09/28 03:59:42;;;;;;;24.05;5.63;;;;;;;;;;5091182;28;20039;-73
2022/09/28 04:02:46;;;;;;;23.30;5.25;;;;;;;;;;5091792;28;20066;-73
2022/09/28 04:05:52;;;;;;;24.40;4.55;;;;;;;;;;5079027;28;20046;-73
2022/09/28 04:08:56;;;;;;;32.72;5.32;;;;;;;;;;5090819;28;20055;-73
2022/09/28 04:12:00;;;;;;;20.65;4.45;;;;;;;;;;5091018;28;20231;-74
2022/09/28 04:15:04;;;;;;;21.70;4.57;;;;;;;;;;5090893;28;20039;-74
2022/09/28 04:18:28;;;;;;;28.63;4.38;;;;;;;;;;5090922;28;20047;-73
2022/09/28 04:21:45;;;;;;;29.00;5.32;;;;;;;;;;5081029;28;20606;-74
2022/09/28 04:24:51;;;;;;;23.25;4.88;;;;;;;;;;5090621;28;20051;-73
2022/09/28 04:31:21;;;;;;;27.98;4.72;;;;;;;;;;5090822;28;20394;-73
2022/09/28 04:34:26;;;;;;;23.60;4.10;;;;;;;;;;5090330;28;20051;-72
2022/09/28 04:37:30;;;;;;;30.05;4.82;;;;;;;;;;5091486;28;20043;-73
2022/09/28 04:40:34;;;;;;;22.95;5.13;;;;;;;;;;5090180;28;20035;-73
2022/09/28 04:43:38;;;;;;;36.10;9.10;;;;;;;;;;5078777;28;20047;-73
2022/09/28 04:46:43;;;;;;;32.97;7.95;;;;;;;;;;5090260;28;20054;-74
2022/09/28 04:50:06;;;;;;;32.70;5.85;;;;;;;;;;5090923;28;20039;-73
2022/09/28 04:53:12;;;;;;;25.67;4.95;;;;;;;;;;5090027;28;20507;-75
2022/09/28 04:56:17;;;;;;;24.33;4.05;;;;;;;;;;5091111;28;20193;-76
2022/09/28 04:59:22;;;;;;;36.28;6.40;;;;;;;;;;5091121;28;20047;-73
2022/09/28 05:02:26;;;;;;;32.17;5.82;;;;;;;;;;5089929;28;20043;-73
2022/09/28 05:06:06;;;;;;;28.40;4.38;;;;;;;;;;5088652;28;20139;-73
2022/09/28 05:09:22;;;;;;;24.92;5.35;;;;;;;;;;5090194;28;20385;-74
2022/09/28 05:12:26;;;;;;;28.40;5.57;;;;;;;;;;5090344;28;20039;-74
2022/09/28 05:15:30;;;;;;;34.95;5.43;;;;;;;;;;5094051;28;20605;-73
2022/09/28 05:18:35;;;;;;;25.20;7.60;;;;;;;;;;5093973;28;20288;-74
2022/09/28 05:21:44;;;;;;;40.05;5.75;;;;;;;;;;5094123;28;20039;-75
2022/09/28 05:24:48;;;;;;;24.35;6.38;;;;;;;;;;5093822;28;20059;-75
2022/09/28 05:27:56;;;;;;;26.67;6.05;;;;;;;;;;5093430;28;20039;-75
2022/09/28 05:31:13;;;;;;;34.10;5.45;;;;;;;;;;5093880;28;20396;-75
2022/09/28 05:34:31;;;;;;;22.73;4.80;;;;;;;;;;5093889;28;20039;-76
2022/09/28 05:37:35;;;;;;;30.67;6.40;;;;;;;;;;5093750;28;20051;-75
2022/09/28 05:40:40;;;;;;;28.55;6.10;;;;;;;;;;5094191;28;20458;-78
2022/09/28 05:43:44;;;;;;;24.45;5.47;;;;;;;;;;5094076;28;20051;-77
2022/09/28 05:46:48;;;;;;;24.70;5.20;;;;;;;;;;5093445;28;20169;-77
2022/09/28 05:49:55;;;;;;;28.38;5.20;;;;;;;;;;5093867;28;20047;-76
2022/09/28 05:53:01;;;;;;;25.45;5.03;;;;;;;;;;5082054;28;20047;-75
2022/09/28 05:56:06;;;;;;;26.55;5.45;;;;;;;;;;5093742;28;20055;-76
2022/09/28 05:59:12;;;;;;;23.25;5.13;;;;;;;;;;5093663;28;20039;-76
2022/09/28 06:02:17;;;;;;;22.45;5.30;;;;;;;;;;5093279;28;20051;-75
2022/09/28 06:05:22;;;;;;;32.00;5.97;;;;;;;;;;5092921;28;20419;-75
2022/09/28 06:08:26;;;;;;;24.80;5.40;;;;;;;;;;5093232;28;20236;-76
2022/09/28 06:11:43;;;;;;;20.45;5.35;;;;;;;;;;5083267;28;20432;-76
2022/09/28 06:14:59;;;;;;;23.88;5.78;;;;;;;;;;5081043;28;20047;-75
2022/09/28 06:18:09;;;;;;;28.40;6.30;;;;;;;;;;5092272;28;20047;-77
2022/09/28 06:21:36;;;;;;;22.52;5.38;;;;;;;;;;5092843;28;20055;-75
2022/09/28 06:24:40;;;;;;;28.48;6.70;;;;;;;;;;5092484;28;20055;-76
2022/09/28 06:27:53;;;;;;;31.15;6.45;;;;;;;;;;5092768;28;20150;-77
2022/09/28 06:31:01;;;;;;;23.23;5.80;;;;;;;;;;5081100;28;20055;-76
2022/09/28 06:34:08;;;;;;;29.05;5.68;;;;;;;;;;5093051;28;20047;-75
2022/09/28 06:37:31;;;;;;;33.92;6.30;;;;;;;;;;5092597;28;20043;-76
2022/09/28 06:40:38;;;;;;;29.45;6.07;;;;;;;;;;5092607;28;20047;-82
2022/09/28 06:43:44;;;;;;;38.50;6.85;;;;;;;;;;5091960;28;20059;-77
2022/09/28 06:47:07;;;;;;;30.17;4.57;;;;;;;;;;5093025;28;20043;-77
2022/09/28 06:50:31;;;;;;;18.02;4.53;;;;;;;;;;5093514;28;20039;-76
2022/09/28 06:53:55;;;;;;;24.15;4.43;;;;;;;;;;5092707;28;20039;-75
2022/09/28 06:57:21;;;;;;;39.85;4.35;;;;;;;;;;5092228;28;20110;-75
2022/09/28 07:00:26;;;;;;;37.20;4.32;;;;;;;;;;5091693;28;20438;-76
2022/09/28 07:03:31;;;;;;;31.70;4.53;;;;;;;;;;5080415;28;20050;-75
2022/09/28 07:06:38;;;;;;;32.60;5.75;;;;;;;;;;5091648;28;20051;-76
2022/09/28 07:10:08;;;;;;;32.45;5.32;;;;;;;;;;5088307;28;20047;-76
2022/09/28 07:13:39;;;;;;;34.17;4.88;;;;;;;;;;5092630;28;20388;-77
2022/09/28 07:16:45;;;;;;;18.00;3.78;;;;;;;;;;5091704;28;20055;-76
2022/09/28 07:19:51;;;;;;;31.58;4.65;;;;;;;;;;5091621;28;20046;-75
2022/09/28 07:22:56;;;;;;;16.85;3.15;;;;;;;;;;5091577;28;20302;-76
2022/09/28 07:26:05;;;;;;;26.83;3.97;;;;;;;;;;5080050;28;20047;-76
2022/09/28 07:29:29;;;;;;;18.60;3.58;;;;;;;;;;5092115;28;20051;-76
2022/09/28 07:32:39;;;;;;;18.92;3.83;;;;;;;;;;5091714;28;20051;-76
2022/09/28 07:36:05;;;;;;;15.15;3.42;;;;;;;;;;5091374;28;20039;-79
2022/09/28 07:39:11;;;;;;;31.42;5.15;;;;;;;;;;5091462;28;20047;-77
2022/09/28 07:42:15;;;;;;;26.05;4.88;;;;;;;;;;5079742;28;20051;-75
2022/09/28 07:45:20;;;;;;;17.85;4.53;;;;;;;;;;5091282;28;20055;-76
2022/09/28 07:48:26;;;;;;;32.40;4.38;;;;;;;;;;5091576;28;20043;-76
2022/09/28 07:51:49;;;;;;;26.35;4.45;;;;;;;;;;5092208;28;20043;-76
2022/09/28 07:55:23;;;;;;;21.05;3.67;;;;;;;;;;5084693;28;20407;-76
2022/09/28 07:59:01;;;;;;;16.45;3.20;;;;;;;;;;5090958;28;20518;-76
2022/09/28 08:02:25;;;;;;;36.85;3.88;;;;;;;;;;5086748;28;20047;-77
2022/09/28 08:05:30;;;;;;;28.95;4.28;;;;;;;;;;5079639;28;20081;-75
2022/09/28 08:08:35;;;;;;;33.63;4.40;;;;;;;;;;5090830;28;20047;-76
2022/09/28 08:11:42;;;;;;;26.75;4.28;;;;;;;;;;5079237;28;20055;-76
2022/09/28 08:15:00;;;;;;;31.13;5.63;;;;;;;;;;5090800;28;20392;-74
2022/09/28 08:18:23;;;;;;;15.50;2.92;;;;;;;;;;5091627;28;20036;-75
2022/09/28 08:21:45;;;;;;;22.27;3.83;;;;;;;;;;5090620;28;20050;-76
2022/09/28 08:24:50;;;;;;;21.63;3.50;;;;;;;;;;5089240;28;20055;-78
2022/09/28 08:27:55;;;;;;;17.52;3.13;;;;;;;;;;5066921;28;20189;-75
2022/09/28 08:31:06;;;;;;;19.92;3.88;;;;;;;;;;5090231;28;20051;-76
2022/09/28 08:34:29;;;;;;;22.63;2.97;;;;;;;;;;5091689;28;20420;-79
2022/09/28 08:37:53;;;;;;;14.13;3.15;;;;;;;;;;5090687;28;20047;-75
2022/09/28 08:41:23;;;;;;;17.92;3.40;;;;;;;;;;5095050;28;20071;-75
2022/09/28 08:44:44;;;;;;;37.22;4.40;;;;;;;;;;5089988;28;20523;-76
2022/09/28 08:48:46;;;;;;;20.30;2.90;;;;;;;;;;5089702;28;20396;-78
2022/09/28 08:52:25;;;;;;;14.98;3.00;;;;;;;;;;5089792;28;20043;-76
2022/09/28 08:55:38;;;;;;;13.73;3.45;;;;;;;;;;5091244;28;20055;-77
2022/09/28 08:58:45;;;;;;;20.85;4.00;;;;;;;;;;5089995;28;20106;-76
2022/09/28 09:01:58;;;;;;;13.57;2.88;;;;;;;;;;5090135;28;20047;-77
2022/09/28 09:05:04;;;;;;;15.00;3.35;;;;;;;;;;5090047;28;20530;-76
2022/09/28 09:08:35;;;;;;;29.30;3.40;;;;;;;;;;5090943;28;20103;-76
2022/09/28 09:11:59;;;;;;;20.30;2.80;;;;;;;;;;5089903;28;20122;-78
2022/09/28 09:15:13;;;;;;;14.05;2.67;;;;;;;;;;5090126;28;20392;-75
2022/09/28 09:18:30;;;;;;;25.58;3.30;;;;;;;;;;5090111;28;20039;-76
2022/09/28 09:22:00;;;;;;;25.13;4.72;;;;;;;;;;5089644;28;20285;-76
2022/09/28 09:25:43;;;;;;;26.02;3.60;;;;;;;;;;5089735;28;20043;-77
2022/09/28 09:28:48;;;;;;;26.98;3.97;;;;;;;;;;5076182;28;20408;-76
2022/09/28 09:32:03;;;;;;;26.73;4.47;;;;;;;;;;5076586;28;20494;-76
2022/09/28 09:35:37;;;;;;;24.90;3.30;;;;;;;;;;5089883;28;20400;-77
2022/09/28 09:38:47;;;;;;;20.25;3.25;;;;;;;;;;5093847;28;20047;-77
2022/09/28 09:42:28;;;;;;;18.55;3.05;;;;;;;;;;5089519;28;20039;-77
2022/09/28 09:46:12;;;;;;;14.38;2.35;;;;;;;;;;5080563;28;20051;-77
2022/09/28 09:49:34;;;;;;;16.42;2.97;;;;;;;;;;5079769;28;20039;-77
2022/09/28 09:52:58;;;;;;;37.45;4.38;;;;;;;;;;5089736;28;20047;-77
2022/09/28 09:56:13;;;;;;;16.77;2.72;;;;;;;;;;5077726;28;20493;-76
2022/09/28 09:59:37;;;;;;;17.73;2.70;;;;;;;;;;5090620;28;20051;-76
2022/09/28 10:02:48;;;;;;;12.35;3.03;;;;;;;;;;5093432;28;20047;-76
2022/09/28 10:06:08;;;;;;;15.50;2.60;;;;;;;;;;5093191;28;20530;-80
2022/09/28 10:09:12;;;;;;;17.90;2.55;;;;;;;;;;5081543;28;20043;-76
2022/09/28 10:12:19;;;;;;;15.07;2.63;;;;;;;;;;5093197;28;20437;-76
2022/09/28 10:15:26;;;;;;;13.32;2.25;;;;;;;;;;5094818;28;20051;-76
2022/09/28 10:18:48;;;;;;;15.02;2.70;;;;;;;;;;5093133;28;20118;-77
2022/09/28 10:22:22;;;;;;;17.88;3.65;;;;;;;;;;5079698;28;20408;-77
2022/09/28 10:25:28;;;;;;;19.65;3.20;;;;;;;;;;5092538;28;20059;-76
2022/09/28 10:28:39;;;;;;;17.45;3.10;;;;;;;;;;5092441;28;20133;-75
2022/09/28 10:31:47;;;;;;;13.82;2.42;;;;;;;;;;5093112;28;20051;-80
2022/09/28 10:35:17;;;;;;;13.05;2.45;;;;;;;;;;5093603;28;20039;-79
2022/09/28 10:38:24;;;;;;;10.35;2.35;;;;;;;;;;5094703;28;20047;-78
2022/09/28 10:41:48;;;;;;;14.35;2.60;;;;;;;;;;5092540;28;20039;-78
2022/09/28 10:44:56;;;;;;;17.35;2.65;;;;;;;;;;5095232;28;20512;-78
2022/09/28 10:48:21;;;;;;;17.20;2.90;;;;;;;;;;5094897;28;20039;-81
2022/09/28 10:51:45;;;;;;;12.50;2.60;;;;;;;;;;5093575;28;20050;-76
2022/09/28 10:54:54;;;;;;;14.88;3.10;;;;;;;;;;5091960;28;20047;-80
2022/09/28 10:58:00;;;;;;;17.50;2.72;;;;;;;;;;5093931;28;20047;-79
2022/09/28 11:01:19;;;;;;;18.98;2.53;;;;;;;;;;5092664;28;20047;-77
2022/09/28 11:04:26;;;;;;;23.73;2.92;;;;;;;;;;5095721;28;20072;-79
2022/09/28 11:07:31;;;;;;;7.55;2.38;;;;;;;;;;5094070;28;20050;-79
2022/09/28 11:10:36;;;;;;;11.90;2.80;;;;;;;;;;5094205;28;20040;-80
2022/09/28 11:13:50;;;;;;;20.77;3.40;;;;;;;;;;5094065;28;20043;-79
2022/09/28 11:17:19;;;;;;;26.90;3.90;;;;;;;;;;5094497;28;20055;-81
2022/09/28 11:20:25;;;;;;;12.18;2.40;;;;;;;;;;5094145;28;20043;-80
2022/09/28 11:23:30;;;;;;;15.55;2.95;;;;;;;;;;5094036;28;20043;-79
2022/09/28 11:26:43;;;;;;;16.08;3.67;;;;;;;;;;5092996;28;20063;-80
2022/09/28 11:30:20;;;;;;;14.15;2.60;;;;;;;;;;5094329;28;20055;-79
2022/09/28 11:33:41;;;;;;;15.18;2.58;;;;;;;;;;5082722;28;20043;-78
2022/09/28 11:37:17;;;;;;;13.15;2.55;;;;;;;;;;5092794;28;20285;-82
2022/09/28 11:40:24;;;;;;;17.45;2.38;;;;;;;;;;5092584;28;20059;-78
2022/09/28 11:43:28;;;;;;;14.45;2.30;;;;;;;;;;5080954;28;20047;-80
2022/09/28 11:46:45;;;;;;;15.68;3.92;;;;;;;;;;5092475;28;20055;-81
2022/09/28 11:49:54;;;;;;;18.40;3.22;;;;;;;;;;5081194;28;20047;-79
2022/09/28 11:53:03;;;;;;;11.90;3.10;;;;;;;;;;5093930;28;20070;-81
2022/09/28 11:56:18;;;;;;;12.18;2.70;;;;;;;;;;5093427;28;20039;-81
2022/09/28 11:59:35;;;;;;;16.42;3.15;;;;;;;;;;5092777;28;20047;-79
2022/09/28 12:02:57;;;;;;;11.20;2.22;;;;;;;;;;5092152;28;20507;-78
2022/09/28 12:06:08;;;;;;;12.52;2.25;;;;;;;;;;5094421;28;20051;-82
2022/09/28 12:09:22;;;;;;;18.63;2.83;;;;;;;;;;5095429;28;20047;-78
2022/09/28 12:12:37;;;;;;;13.15;1.98;;;;;;;;;;5093124;28;20043;-78
2022/09/28 12:15:52;;;;;;;13.50;2.08;;;;;;;;;;5093152;28;20051;-81
2022/09/28 12:18:57;;;;;;;10.87;1.87;;;;;;;;;;5080734;28;20043;-75
2022/09/28 12:22:11;;;;;;;13.98;2.17;;;;;;;;;;5091792;28;20082;-75
2022/09/28 12:25:19;;;;;;;11.35;2.10;;;;;;;;;;5093143;28;20409;-82
2022/09/28 12:28:29;;;;;;;15.93;2.88;;;;;;;;;;5094457;28;20059;-83
2022/09/28 12:31:47;;;;;;;12.18;1.73;;;;;;;;;;5095622;28;20043;-78
2022/09/28 12:34:51;;;;;;;11.68;2.00;;;;;;;;;;5096202;28;20050;-80
2022/09/28 12:38:34;;;;;;;20.70;2.58;;;;;;;;;;5094082;28;20047;-78
2022/09/28 12:41:38;;;;;;;12.30;2.65;;;;;;;;;;5091885;28;20135;-80
2022/09/28 12:45:01;;;;;;;15.07;2.42;;;;;;;;;;5091350;28;20590;-79
2022/09/28 12:48:15;;;;;;;12.25;2.40;;;;;;;;;;5091580;28;20047;-80
2022/09/28 12:51:27;;;;;;;12.68;3.10;;;;;;;;;;5091668;28;20051;-77
2022/09/28 12:54:57;;;;;;;15.88;2.55;;;;;;;;;;5091842;28;20043;-79
2022/09/28 12:58:10;;;;;;;9.50;2.67;;;;;;;;;;5091802;28;20420;-77
2022/09/28 13:01:34;;;;;;;10.13;2.40;;;;;;;;;;5092200;28;20036;-77
2022/09/28 13:04:46;;;;;;;21.20;3.00;;;;;;;;;;5091461;28;20499;-76
2022/09/28 13:07:57;;;;;;;14.77;2.30;;;;;;;;;;5091573;28;20051;-74
2022/09/28 13:11:30;;;;;;;10.68;1.88;;;;;;;;;;5079085;28;20125;-73
2022/09/28 13:14:52;;;;;;;19.60;2.95;;;;;;;;;;5091087;28;20055;-77
2022/09/28 13:18:04;;;;;;;15.57;2.28;;;;;;;;;;5089837;28;20043;-66
2022/09/28 13:21:29;;;;;;;18.25;2.75;;;;;;;;;;5090670;28;20035;-70
2022/09/28 13:24:36;;;;;;;14.10;2.47;;;;;;;;;;5092268;28;20039;-70
2022/09/28 13:27:44;;;;;;;14.40;2.58;;;;;;;;;;5090654;28;20051;-70
2022/09/28 13:30:50;;;;;;;19.83;3.60;;;;;;;;;;5091174;28;20047;-68
2022/09/28 13:33:55;;;;;;;19.00;3.00;;;;;;;;;;5090900;28;20047;-67
2022/09/28 13:37:15;;;;;;;14.70;2.65;;;;;;;;;;5094656;28;20055;-69
2022/09/28 13:40:40;;;;;;;19.55;2.75;;;;;;;;;;5094181;28;20511;-67
2022/09/28 13:44:03;;;;;;;20.50;3.33;;;;;;;;;;5094376;28;20047;-68
2022/09/28 13:47:37;;;;;;;17.08;3.55;;;;;;;;;;5094200;28;20051;-71
2022/09/28 13:50:50;;;;;;;21.50;4.07;;;;;;;;;;5092313;28;20051;-70
2022/09/28 13:54:03;;;;;;;16.45;2.63;;;;;;;;;;5094293;28;20051;-71
2022/09/28 13:57:34;;;;;;;18.50;3.22;;;;;;;;;;5094136;28;20047;-71
2022/09/28 14:01:02;;;;;;;30.48;4.85;;;;;;;;;;5094192;28;20652;-69
2022/09/28 14:04:20;;;;;;;35.30;4.68;;;;;;;;;;5094411;28;20047;-69
2022/09/28 14:07:26;;;;;;;23.83;3.60;;;;;;;;;;5093756;28;20146;-68
2022/09/28 14:10:50;;;;;;;18.40;3.00;;;;;;;;;;5093686;28;20051;-70
2022/09/28 14:13:58;;;;;;;28.98;4.40;;;;;;;;;;5093595;28;20051;-70
2022/09/28 14:17:20;;;;;;;33.35;4.57;;;;;;;;;;5093750;28;20067;-70
2022/09/28 14:20:26;;;;;;;21.65;3.80;;;;;;;;;;5081405;28;20047;-72
2022/09/28 14:23:37;;;;;;;27.27;3.75;;;;;;;;;;5093443;28;20047;-73
2022/09/28 14:26:53;;;;;;;25.33;4.32;;;;;;;;;;5092441;28;20062;-70
2022/09/28 14:30:16;;;;;;;24.17;3.72;;;;;;;;;;5093038;28;20043;-72
2022/09/28 14:33:20;;;;;;;31.50;4.20;;;;;;;;;;5093432;28;20051;-70
2022/09/28 14:43:32;;;;;;;19.73;4.55;;;;;;;;;;5093226;28;20035;-74
2022/09/28 14:46:36;;;;;;;21.20;3.90;;;;;;;;;;5091994;28;20054;-73
2022/09/28 14:49:46;;;;;;;26.70;5.03;;;;;;;;;;5093284;28;20103;-73
2022/09/28 14:52:52;;;;;;;26.33;3.78;;;;;;;;;;5093282;28;20039;-78
2022/09/28 14:55:57;;;;;;;27.85;4.22;;;;;;;;;;5093409;28;20043;-77
2022/09/28 14:59:02;;;;;;;21.27;4.35;;;;;;;;;;5092788;28;20511;-77
2022/09/28 15:02:25;;;;;;;33.05;5.05;;;;;;;;;;5093800;28;20047;-81
2022/09/28 15:05:32;;;;;;;22.70;4.15;;;;;;;;;;5094650;28;20111;-75
2022/09/28 15:08:37;;;;;;;27.92;4.40;;;;;;;;;;5093481;28;20055;-74
2022/09/28 15:11:41;;;;;;;27.48;4.00;;;;;;;;;;5092123;28;20463;-74
2022/09/28 15:15:06;;;;;;;25.95;4.10;;;;;;;;;;5092397;28;20047;-72
2022/09/28 15:18:10;;;;;;;27.38;4.18;;;;;;;;;;5092493;28;20039;-74
2022/09/28 15:21:15;;;;;;;33.75;6.20;;;;;;;;;;5091889;28;20071;-74
2022/09/28 15:24:30;;;;;;;26.98;4.53;;;;;;;;;;5092442;28;20047;-74
2022/09/28 15:27:36;;;;;;;38.15;6.43;;;;;;;;;;5091402;28;20051;-73
2022/09/28 15:30:40;;;;;;;24.35;4.30;;;;;;;;;;5092485;28;20031;-74
2022/09/28 15:37:10;;;;;;;30.67;5.18;;;;;;;;;;5092961;28;20213;-74
2022/09/28 15:40:16;;;;;;;20.73;3.65;;;;;;;;;;5092111;28;20051;-74
2022/09/28 15:43:27;;;;;;;15.82;3.58;;;;;;;;;;5092389;28;20043;-74
2022/09/28 15:46:39;;;;;;;15.57;3.33;;;;;;;;;;5091148;28;20055;-74
2022/09/28 15:49:55;;;;;;;21.70;3.67;;;;;;;;;;5092188;28;20050;-73
2022/09/28 15:53:01;;;;;;;18.98;3.83;;;;;;;;;;5092070;28;20047;-74
2022/09/28 15:56:09;;;;;;;26.80;5.05;;;;;;;;;;5092114;28;20059;-74
2022/09/28 15:59:13;;;;;;;24.90;4.40;;;;;;;;;;5091709;28;20047;-73
2022/09/28 16:02:19;;;;;;;27.65;4.22;;;;;;;;;;5092001;28;20515;-73
2022/09/28 16:05:34;;;;;;;24.00;4.45;;;;;;;;;;5091142;28;20142;-75
2022/09/28 16:08:43;;;;;;;27.33;4.95;;;;;;;;;;5090404;28;20047;-75
2022/09/28 16:11:48;;;;;;;18.65;3.10;;;;;;;;;;5092014;28;20055;-75
2022/09/28 16:14:55;;;;;;;15.85;3.65;;;;;;;;;;5091821;28;20047;-74
2022/09/28 16:18:01;;;;;;;20.65;3.33;;;;;;;;;;5091569;28;20047;-74
2022/09/28 16:21:24;;;;;;;29.05;4.07;;;;;;;;;;5090737;28;20043;-73
2022/09/28 16:24:31;;;;;;;20.17;3.90;;;;;;;;;;5091146;28;20051;-74
2022/09/28 16:27:43;;;;;;;24.95;4.15;;;;;;;;;;5090886;28;20523;-75
2022/09/28 16:31:04;;;;;;;23.85;3.95;;;;;;;;;;5091017;28;20209;-74
2022/09/28 16:34:09;;;;;;;;;;;;;;;;;;5089087;28;20043;-74
2022/09/28 16:37:32;;;;;;;26.50;4.18;;;;;;;;;;5091114;28;19915;-74
2022/09/28 16:40:59;;;;;;;30.95;4.47;;;;;;;;;;5090678;28;20063;-74
2022/09/28 16:44:03;;;;;;;27.30;4.65;;;;;;;;;;5090813;28;20043;-75
2022/09/28 16:47:08;;;;;;;41.42;5.75;;;;;;;;;;5090675;28;20396;-76
2022/09/28 16:50:15;;;;;;;22.30;5.22;;;;;;;;;;5089826;28;20507;-75
2022/09/28 16:56:43;;;;;;;37.60;5.25;;;;;;;;;;5089314;28;20051;-74
2022/09/28 16:59:47;;;;;;;25.25;4.85;;;;;;;;;;5090348;28;20051;-76
2022/09/28 17:02:51;;;;;;;30.10;5.57;;;;;;;;;;5078131;28;20043;-76
2022/09/28 17:05:56;;;;;;;30.98;4.45;;;;;;;;;;5089866;28;20080;-76
2022/09/28 17:09:05;;;;;;;28.52;5.03;;;;;;;;;;5089905;28;20063;-75
2022/09/28 17:12:17;;;;;;;24.88;4.50;;;;;;;;;;5094773;28;20039;-76
2022/09/28 17:15:21;;;;;;;25.52;4.22;;;;;;;;;;5094177;28;20047;-76
2022/09/28 17:18:26;;;;;;;29.70;4.13;;;;;;;;;;5093678;28;20047;-77
2022/09/28 17:21:30;;;;;;;22.48;3.95;;;;;;;;;;5094144;28;20051;-76
2022/09/28 17:24:35;;;;;;;25.08;4.85;;;;;;;;;;5094232;28;20047;-75
2022/09/28 17:27:40;;;;;;;24.58;3.72;;;;;;;;;;5094432;28;20556;-75
2022/09/28 17:30:44;;;;;;;37.90;5.03;;;;;;;;;;5093794;28;20036;-75
2022/09/28 17:33:49;;;;;;;27.17;3.40;;;;;;;;;;5094734;28;20063;-75
2022/09/28 17:36:54;;;;;;;34.92;4.22;;;;;;;;;;5093853;28;20047;-76
2022/09/28 17:39:59;;;;;;;22.48;3.78;;;;;;;;;;5092734;28;20055;-75
2022/09/28 17:43:04;;;;;;;32.70;5.38;;;;;;;;;;5094174;28;20499;-76
2022/09/28 17:46:25;;;;;;;28.30;3.92;;;;;;;;;;5093972;28;20051;-76
2022/09/28 17:49:30;;;;;;;30.30;5.35;;;;;;;;;;5094013;28;20043;-75
2022/09/28 17:52:34;;;;;;;33.28;5.63;;;;;;;;;;5093930;28;20526;-75
2022/09/28 17:55:39;;;;;;;29.83;5.78;;;;;;;;;;5093201;28;20039;-76
2022/09/28 17:58:43;;;;;;;20.73;5.82;;;;;;;;;;5094116;28;20051;-75
2022/09/28 18:01:48;;;;;;;24.30;4.90;;;;;;;;;;5094044;28;20047;-75
2022/09/28 18:04:52;;;;;;;26.73;4.90;;;;;;;;;;5092868;28;20062;-75
2022/09/28 18:07:57;;;;;;;19.58;4.22;;;;;;;;;;5093834;28;20043;-75
2022/09/28 18:11:02;;;;;;;27.15;5.03;;;;;;;;;;5093929;28;20043;-77
2022/09/28 18:14:06;;;;;;;29.30;5.07;;;;;;;;;;5093535;28;20035;-76
2022/09/28 18:17:10;;;;;;;23.05;4.60;;;;;;;;;;5093201;28;20253;-76
2022/09/28 18:20:14;;;;;;;23.38;4.05;;;;;;;;;;5093644;28;20039;-74
2022/09/28 18:23:19;;;;;;;16.75;3.80;;;;;;;;;;5093547;28;20047;-76
2022/09/28 18:26:23;;;;;;;27.10;5.65;;;;;;;;;;5092129;28;20084;-76
2022/09/28 18:29:28;;;;;;;24.83;5.07;;;;;;;;;;5092886;28;20047;-76
2022/09/28 18:32:35;;;;;;;20.17;4.53;;;;;;;;;;5093174;28;20047;-75
2022/09/28 18:35:40;;;;;;;30.98;5.38;;;;;;;;;;5093214;28;20042;-75
2022/09/28 18:38:45;;;;;;;20.77;5.13;;;;;;;;;;5091849;28;20087;-75
2022/09/28 18:41:49;;;;;;;22.52;4.80;;;;;;;;;;5092883;28;20036;-76
2022/09/28 18:44:53;;;;;;;21.60;5.40;;;;;;;;;;5091826;28;20035;-73
2022/09/28 18:47:58;;;;;;;26.48;5.43;;;;;;;;;;5092538;28;20055;-72
2022/09/28 18:51:07;;;;;;;22.38;4.30;;;;;;;;;;5092482;28;20035;-72
2022/09/28 18:54:11;;;;;;;24.90;4.75;;;;;;;;;;5092609;28;20047;-72
2022/09/28 18:57:16;;;;;;;18.40;4.57;;;;;;;;;;5092803;28;20039;-72
2022/09/28 19:00:20;;;;;;;18.85;4.10;;;;;;;;;;5092881;28;20055;-72
2022/09/28 19:03:24;;;;;;;21.85;4.90;;;;;;;;;;5091942;28;20406;-72
2022/09/28 19:06:30;;;;;;;28.95;6.32;;;;;;;;;;5092001;28;20051;-73
2022/09/28 19:09:35;;;;;;;27.83;5.78;;;;;;;;;;5092469;28;20055;-73